Time;durP1;ratioP1;P1;durP2;ratioP2;P2;SDS_P1;SDS_P2;PMS_P1;PMS_P2;Temp;Humidity;BMP_temperature;BMP_pressure;BME280_temperature;BME280_humidity;BME280_pressure;Samples;Min_cycle;Max_cycle;Signal;HPM_P1;HPM_P2
2023/05/31 00:01:06;;;;;;;0.50;0.50;;;11.20;99.90;;;;;;7403598;19;19924;-81
2023/05/31 00:03:35;;;;;;;0.60;0.50;;;11.30;99.90;;;;;;7400548;19;19947;-83
2023/05/31 00:06:04;;;;;;;1.13;0.60;;;11.40;99.90;;;;;;7403100;19;20293;-83
2023/05/31 00:08:36;;;;;;;1.25;0.65;;;11.10;99.90;;;;;;7402485;19;19932;-82
2023/05/31 00:11:05;;;;;;;2.05;0.60;;;11.00;99.90;;;;;;7404113;19;20357;-83
2023/05/31 00:13:34;;;;;;;0.80;0.50;;;11.20;99.90;;;;;;7400399;19;19951;-83
2023/05/31 00:16:04;;;;;;;1.35;0.63;;;11.20;99.90;;;;;;7402341;19;20362;-83
2023/05/31 00:18:33;;;;;;;0.70;0.40;;;11.00;99.90;;;;;;7402262;19;19922;-83
2023/05/31 00:21:02;;;;;;;0.60;0.50;;;11.10;99.90;;;;;;7406291;19;19974;-81
2023/05/31 00:23:31;;;;;;;1.85;0.60;;;10.90;99.90;;;;;;7410129;19;19918;-82
2023/05/31 00:26:03;;;;;;;0.65;0.60;;;9.70;99.90;;;;;;7409478;19;20025;-83
2023/05/31 00:28:32;;;;;;;0.70;0.60;;;10.80;99.90;;;;;;7410183;19;19922;-82
2023/05/31 00:31:01;;;;;;;1.10;0.70;;;10.80;99.90;;;;;;7409136;19;19922;-81
2023/05/31 00:33:30;;;;;;;0.60;0.55;;;10.70;99.90;;;;;;7410122;19;19956;-82
2023/05/31 00:35:58;;;;;;;0.98;0.63;;;10.90;99.90;;;;;;7410436;19;19946;-82
2023/05/31 00:38:27;;;;;;;1.02;0.70;;;10.90;99.90;;;;;;7409946;19;19927;-82
2023/05/31 00:40:56;;;;;;;1.17;0.60;;;10.70;99.90;;;;;;7409841;19;20296;-82
2023/05/31 00:43:28;;;;;;;1.38;0.70;;;10.60;99.90;;;;;;7409148;19;19922;-82
2023/05/31 00:45:57;;;;;;;1.42;0.82;;;10.60;99.90;;;;;;7408651;19;19923;-82
2023/05/31 00:48:26;;;;;;;0.50;0.50;;;10.60;99.90;;;;;;7410096;19;19930;-80
2023/05/31 00:50:55;;;;;;;0.95;0.57;;;10.70;99.90;;;;;;7407861;19;19926;-81
2023/05/31 00:53:25;;;;;;;0.80;0.80;;;10.60;99.90;;;;;;7409955;19;19972;-80
2023/05/31 00:55:54;;;;;;;2.08;0.82;;;10.40;99.90;;;;;;7410255;19;20356;-81
2023/05/31 00:58:29;;;;;;;0.70;0.57;;;10.50;99.90;;;;;;7408524;19;19946;-82
2023/05/31 01:00:58;;;;;;;1.65;0.85;;;10.50;99.90;;;;;;7408600;19;19919;-81
2023/05/31 01:03:27;;;;;;;1.30;0.70;;;10.40;99.90;;;;;;7409809;19;20349;-81
2023/05/31 01:05:57;;;;;;;1.00;0.80;;;10.50;99.90;;;;;;7408623;19;19935;-81
2023/05/31 01:08:26;;;;;;;0.77;0.60;;;10.40;99.90;;;;;;7409025;19;20256;-82
2023/05/31 01:10:59;;;;;;;0.50;0.50;;;10.30;99.90;;;;;;7403240;19;19930;-81
2023/05/31 01:13:38;;;;;;;0.80;0.60;;;10.30;99.90;;;;;;7410545;19;19930;-81
2023/05/31 01:16:14;;;;;;;0.70;0.55;;;10.40;99.90;;;;;;7409550;19;19939;-81
2023/05/31 01:18:48;;;;;;;0.93;0.70;;;10.40;99.90;;;;;;7409163;19;19915;-81
2023/05/31 01:21:19;;;;;;;1.42;0.50;;;10.30;99.90;;;;;;7408708;19;19927;-82
2023/05/31 01:24:02;;;;;;;1.58;0.80;;;10.10;99.90;;;;;;7408713;19;19915;-81
2023/05/31 01:26:39;;;;;;;;;;;10.20;99.90;;;;;;7412069;19;19926;-81
2023/05/31 01:29:12;;;;;;;1.90;0.80;;;10.20;99.90;;;;;;7406868;19;20313;-82
2023/05/31 01:31:44;;;;;;;1.55;0.70;;;10.20;99.90;;;;;;7405389;19;19934;-81
2023/05/31 01:34:13;;;;;;;0.90;0.75;;;10.20;99.90;;;;;;7409003;19;20365;-81
2023/05/31 01:36:42;;;;;;;1.58;0.82;;;10.20;99.90;;;;;;7408092;19;19918;-82
2023/05/31 01:39:14;;;;;;;1.15;0.68;;;10.20;99.90;;;;;;7406761;19;20717;-81
2023/05/31 01:41:48;;;;;;;0.80;0.80;;;10.10;99.90;;;;;;7406631;19;20285;-80
2023/05/31 01:44:19;;;;;;;1.88;0.80;;;10.10;99.90;;;;;;7406626;19;19943;-81
2023/05/31 01:46:49;;;;;;;0.60;0.50;;;10.10;99.90;;;;;;7410058;19;20452;-81
2023/05/31 01:49:18;;;;;;;1.30;0.80;;;10.10;99.90;;;;;;7408730;19;19926;-81
2023/05/31 01:51:48;;;;;;;0.98;0.52;;;10.00;99.90;;;;;;7406591;19;20326;-82
2023/05/31 01:54:17;;;;;;;1.08;0.73;;;9.90;99.90;;;;;;7406184;19;19944;-81
2023/05/31 01:56:49;;;;;;;1.58;0.85;;;10.10;99.90;;;;;;7408166;19;19915;-81
2023/05/31 01:59:19;;;;;;;1.40;0.70;;;10.00;99.90;;;;;;7405271;19;19941;-80
2023/05/31 02:01:49;;;;;;;1.33;0.60;;;9.90;99.90;;;;;;7408508;19;20344;-81
2023/05/31 02:04:21;;;;;;;1.38;0.63;;;10.10;99.90;;;;;;7406156;19;19950;-81
2023/05/31 02:06:51;;;;;;;1.50;0.70;;;9.90;99.90;;;;;;7407487;19;19919;-81
2023/05/31 02:09:22;;;;;;;1.70;0.75;;;9.90;99.90;;;;;;7406768;19;19933;-81
2023/05/31 02:11:53;;;;;;;1.17;0.85;;;10.00;99.90;;;;;;7406808;19;19919;-81
2023/05/31 02:14:22;;;;;;;1.90;0.80;;;9.80;99.90;;;;;;7407991;19;19967;-81
2023/05/31 02:16:52;;;;;;;1.88;0.88;;;9.90;99.90;;;;;;7407738;19;19933;-81
2023/05/31 02:19:25;;;;;;;1.65;0.95;;;9.90;99.90;;;;;;7406924;19;19919;-80
2023/05/31 02:21:54;;;;;;;1.20;0.63;;;9.90;99.90;;;;;;7406177;19;20012;-81
2023/05/31 02:24:23;;;;;;;1.50;0.90;;;8.90;99.90;;;;;;7406930;19;20270;-82
2023/05/31 02:26:55;;;;;;;0.80;0.70;;;10.00;99.90;;;;;;7407815;19;19922;-82
2023/05/31 02:29:24;;;;;;;1.17;0.80;;;10.10;99.90;;;;;;7405089;19;19926;-82
2023/05/31 02:31:53;;;;;;;0.75;0.65;;;10.00;99.90;;;;;;7405529;19;19918;-82
2023/05/31 02:34:22;;;;;;;1.92;1.00;;;10.10;99.90;;;;;;7404155;19;20282;-81
2023/05/31 02:36:51;;;;;;;1.30;0.85;;;9.90;99.90;;;;;;7406370;19;19922;-82
2023/05/31 02:39:20;;;;;;;1.50;0.95;;;10.00;99.90;;;;;;7403711;19;19943;-82
2023/05/31 02:41:49;;;;;;;1.55;1.10;;;10.00;99.90;;;;;;7404379;19;19918;-82
2023/05/31 02:44:20;;;;;;;2.88;1.20;;;10.00;99.90;;;;;;7396571;19;19918;-81
2023/05/31 02:46:49;;;;;;;1.63;1.02;;;9.90;99.90;;;;;;7405583;19;19991;-80
2023/05/31 02:49:19;;;;;;;1.02;0.85;;;9.80;99.90;;;;;;7405826;19;19922;-81
2023/05/31 02:51:48;;;;;;;1.60;1.13;;;9.90;99.90;;;;;;7405051;19;19930;-81
2023/05/31 02:54:17;;;;;;;1.45;1.10;;;9.90;99.90;;;;;;7406248;19;19919;-80
2023/05/31 02:56:47;;;;;;;1.77;1.20;;;9.90;99.90;;;;;;7404988;19;19926;-80
2023/05/31 02:59:16;;;;;;;1.77;1.27;;;9.80;99.90;;;;;;7405058;19;19918;-80
2023/05/31 03:01:47;;;;;;;2.58;1.38;;;9.70;99.90;;;;;;7404777;19;19927;-81
2023/05/31 03:04:16;;;;;;;1.90;1.30;;;9.80;99.90;;;;;;7405637;19;20518;-80
2023/05/31 03:06:45;;;;;;;3.00;1.55;;;9.80;99.90;;;;;;7405496;19;20444;-80
2023/05/31 03:09:16;;;;;;;1.45;1.10;;;9.80;99.90;;;;;;7406164;19;19927;-80
2023/05/31 03:11:45;;;;;;;2.17;1.75;;;9.70;99.90;;;;;;7402680;19;19939;-81
2023/05/31 03:14:15;;;;;;;2.85;1.48;;;9.80;99.90;;;;;;7405670;19;19914;-81
2023/05/31 03:16:47;;;;;;;2.65;1.48;;;9.70;99.90;;;;;;7406551;19;19922;-81
2023/05/31 03:19:17;;;;;;;2.60;1.70;;;9.70;99.90;;;;;;7406047;19;19926;-80
2023/05/31 03:21:46;;;;;;;2.88;1.90;;;9.70;99.90;;;;;;7405898;19;19929;-80
2023/05/31 03:24:15;;;;;;;2.00;1.80;;;9.80;99.90;;;;;;7405509;19;19929;-81
2023/05/31 03:26:44;;;;;;;2.33;1.65;;;9.90;99.90;;;;;;7404511;19;19919;-81
2023/05/31 03:29:13;;;;;;;1.88;1.60;;;9.90;99.90;;;;;;7398517;19;19930;-81
2023/05/31 03:31:42;;;;;;;2.63;1.63;;;9.80;99.90;;;;;;7398660;19;19937;-81
2023/05/31 03:34:14;;;;;;;2.25;1.40;;;9.80;99.90;;;;;;7402184;19;20351;-81
2023/05/31 03:36:42;;;;;;;;;;;9.80;99.90;;;;;;7404537;19;19923;-81
2023/05/31 03:39:12;;;;;;;2.05;1.52;;;9.70;99.90;;;;;;7402309;19;19914;-81
2023/05/31 03:41:41;;;;;;;1.80;1.35;;;9.80;99.90;;;;;;7404134;19;20277;-81
2023/05/31 03:44:10;;;;;;;1.65;1.52;;;9.80;99.90;;;;;;7405379;19;19922;-81
2023/05/31 03:46:39;;;;;;;2.70;1.38;;;9.80;99.90;;;;;;7402838;19;20837;-81
2023/05/31 03:49:07;;;;;;;1.83;1.55;;;10.00;99.90;;;;;;7401998;19;19949;-81
2023/05/31 03:51:39;;;;;;;1.90;1.25;;;9.90;99.90;;;;;;7401296;19;19926;-81
2023/05/31 03:54:08;;;;;;;1.73;1.23;;;9.90;99.90;;;;;;7402034;19;19919;-79
2023/05/31 03:56:38;;;;;;;2.58;1.50;;;9.90;99.90;;;;;;7404924;19;19934;-81
2023/05/31 03:59:07;;;;;;;2.03;1.35;;;10.00;99.90;;;;;;7407469;19;19943;-81
2023/05/31 04:01:37;;;;;;;1.60;1.23;;;9.90;99.90;;;;;;7409958;19;20022;-80
2023/05/31 04:04:06;;;;;;;1.95;1.50;;;10.00;99.90;;;;;;7409767;19;19926;-81
2023/05/31 04:06:35;;;;;;;1.60;1.38;;;10.00;99.90;;;;;;7408514;19;19999;-81
2023/05/31 04:09:06;;;;;;;1.83;1.25;;;10.00;99.90;;;;;;7409135;19;19918;-81
2023/05/31 04:11:35;;;;;;;2.63;1.25;;;10.00;99.90;;;;;;7405860;19;19934;-81
2023/05/31 04:14:05;;;;;;;1.65;1.10;;;10.10;99.90;;;;;;7409843;19;19950;-80
2023/05/31 04:16:33;;;;;;;0.85;0.80;;;10.10;99.90;;;;;;7400703;19;19962;-80
2023/05/31 04:19:02;;;;;;;1.75;1.00;;;10.10;99.90;;;;;;7407526;19;19959;-81
2023/05/31 04:21:32;;;;;;;1.77;1.00;;;10.00;99.90;;;;;;7408264;19;20013;-81
2023/05/31 04:24:02;;;;;;;3.40;1.40;;;10.20;99.90;;;;;;7406572;19;19935;-80
2023/05/31 04:26:34;;;;;;;1.25;1.00;;;10.10;99.90;;;;;;7409667;19;19919;-80
2023/05/31 04:29:03;;;;;;;1.58;0.93;;;10.10;99.90;;;;;;7405209;19;19947;-81
2023/05/31 04:31:35;;;;;;;1.77;1.00;;;10.20;99.90;;;;;;7405182;19;19978;-80
2023/05/31 04:34:04;;;;;;;;;;;10.40;99.90;;;;;;7408402;19;19939;-81
2023/05/31 04:36:36;;;;;;;1.35;0.85;;;10.30;99.90;;;;;;7406822;19;20324;-80
2023/05/31 04:39:12;;;;;;;0.95;0.85;;;10.30;99.90;;;;;;7409465;19;19922;-79
2023/05/31 04:41:44;;;;;;;1.42;0.95;;;10.40;99.90;;;;;;7407924;19;19935;-81
2023/05/31 04:44:13;;;;;;;1.58;0.93;;;10.30;99.90;;;;;;7408486;19;19922;-79
2023/05/31 04:46:42;;;;;;;1.65;1.10;;;10.30;99.90;;;;;;7406946;19;19954;-80
2023/05/31 04:49:12;;;;;;;1.50;1.00;;;10.40;99.90;;;;;;7408851;19;19919;-81
2023/05/31 04:51:41;;;;;;;1.75;1.02;;;10.50;99.90;;;;;;7403974;19;19932;-80
2023/05/31 04:54:10;;;;;;;1.48;1.08;;;10.30;99.90;;;;;;7408338;19;20611;-80
2023/05/31 04:56:40;;;;;;;1.60;1.20;;;10.60;99.90;;;;;;7405595;19;20319;-80
2023/05/31 04:59:11;;;;;;;2.33;1.30;;;10.40;99.90;;;;;;7406165;19;19915;-81
2023/05/31 05:01:41;;;;;;;1.50;1.00;;;10.60;99.90;;;;;;7404077;19;19919;-80
2023/05/31 05:04:10;;;;;;;1.88;1.25;;;10.60;99.90;;;;;;7404089;19;19950;-80
2023/05/31 05:06:41;;;;;;;1.48;1.00;;;10.70;99.90;;;;;;7407027;19;19933;-81
2023/05/31 05:09:11;;;;;;;2.20;1.10;;;10.60;99.90;;;;;;7407650;19;19946;-81
2023/05/31 05:11:39;;;;;;;1.65;1.00;;;10.70;99.90;;;;;;7403710;19;19963;-81
2023/05/31 05:14:12;;;;;;;1.23;1.08;;;10.60;99.90;;;;;;7407509;19;19995;-81
2023/05/31 05:16:40;;;;;;;2.72;1.10;;;10.70;99.90;;;;;;7403975;19;19974;-81
2023/05/31 05:19:09;;;;;;;1.70;1.05;;;10.90;99.90;;;;;;7406161;19;19931;-80
2023/05/31 05:21:39;;;;;;;1.40;0.85;;;10.70;99.90;;;;;;7404743;19;19935;-80
2023/05/31 05:24:09;;;;;;;2.05;1.00;;;10.90;99.90;;;;;;7404941;19;19922;-81
2023/05/31 05:26:38;;;;;;;2.92;1.50;;;10.90;99.90;;;;;;7405939;19;20663;-80
2023/05/31 05:29:07;;;;;;;2.00;1.30;;;11.00;99.90;;;;;;7404542;19;19929;-81
2023/05/31 05:31:39;;;;;;;2.58;1.10;;;11.00;99.90;;;;;;7402638;19;19944;-80
2023/05/31 05:34:09;;;;;;;2.33;1.25;;;11.10;99.90;;;;;;7406586;19;19930;-80
2023/05/31 05:36:38;;;;;;;1.20;1.10;;;11.10;99.90;;;;;;7405359;19;19933;-81
2023/05/31 05:39:07;;;;;;;1.67;1.00;;;11.10;99.90;;;;;;7408572;19;20332;-80
2023/05/31 05:41:36;;;;;;;1.70;1.00;;;11.10;99.90;;;;;;7407863;19;19985;-80
2023/05/31 05:44:05;;;;;;;1.92;0.98;;;11.20;99.90;;;;;;7407231;19;19967;-80
2023/05/31 05:46:37;;;;;;;2.63;0.95;;;11.10;99.90;;;;;;7406487;19;19990;-80
2023/05/31 05:49:06;;;;;;;;;;;11.20;99.90;;;;;;7409514;19;19982;-80
2023/05/31 05:51:35;;;;;;;1.08;0.98;;;11.30;99.90;;;;;;7407423;19;19978;-80
2023/05/31 05:54:04;;;;;;;1.55;1.00;;;11.40;99.90;;;;;;7408825;19;20266;-80
2023/05/31 05:56:34;;;;;;;2.42;0.90;;;11.40;99.90;;;;;;7408408;19;19922;-80
2023/05/31 05:59:03;;;;;;;2.17;0.90;;;11.70;99.90;;;;;;7407834;19;19923;-81
2023/05/31 06:01:32;;;;;;;1.25;1.00;;;11.50;99.90;;;;;;7408094;19;20325;-80
2023/05/31 06:04:04;;;;;;;1.35;0.90;;;11.50;99.90;;;;;;7407351;19;19981;-80
2023/05/31 06:06:33;;;;;;;1.60;1.00;;;11.60;99.90;;;;;;7406638;19;19930;-81
2023/05/31 06:09:02;;;;;;;1.70;1.00;;;11.70;99.90;;;;;;7403318;19;20000;-80
2023/05/31 06:11:31;;;;;;;1.42;0.88;;;11.70;99.90;;;;;;7403395;19;19926;-81
2023/05/31 06:14:00;;;;;;;1.63;0.73;;;11.80;99.90;;;;;;7400995;19;19922;-81
2023/05/31 06:16:29;;;;;;;1.92;0.90;;;11.90;99.90;;;;;;7403484;19;20443;-80
2023/05/31 06:18:58;;;;;;;1.50;0.70;;;11.80;99.90;;;;;;7399568;19;20353;-82
2023/05/31 06:21:29;;;;;;;1.27;0.70;;;12.00;99.90;;;;;;7363387;19;19922;-81
2023/05/31 06:24:06;;;;;;;2.47;0.70;;;11.90;99.90;;;;;;7406219;19;20254;-83
2023/05/31 06:26:37;;;;;;;1.17;0.80;;;12.10;99.90;;;;;;7403506;19;19926;-82
2023/05/31 06:29:07;;;;;;;1.13;0.70;;;12.00;99.90;;;;;;7404943;19;20059;-81
2023/05/31 06:31:38;;;;;;;1.27;0.77;;;12.10;99.90;;;;;;7406863;19;19928;-81
2023/05/31 06:34:07;;;;;;;2.03;0.80;;;12.30;99.90;;;;;;7406803;19;19915;-81
2023/05/31 06:36:39;;;;;;;2.03;0.80;;;12.20;99.90;;;;;;7407706;19;20281;-81
2023/05/31 06:39:09;;;;;;;1.08;0.63;;;12.00;99.90;;;;;;7407214;19;19924;-81
2023/05/31 06:41:38;;;;;;;1.30;0.60;;;12.30;99.90;;;;;;7406878;19;20436;-81
2023/05/31 06:44:07;;;;;;;2.67;0.80;;;12.20;99.90;;;;;;7407018;19;19915;-81
2023/05/31 06:46:36;;;;;;;0.80;0.50;;;12.40;99.90;;;;;;7407350;19;19915;-80
2023/05/31 06:49:05;;;;;;;1.25;0.68;;;12.60;99.90;;;;;;7407889;19;19922;-81
2023/05/31 06:51:35;;;;;;;1.40;0.57;;;12.50;99.90;;;;;;7407953;19;19925;-81
2023/05/31 06:54:06;;;;;;;1.83;0.70;;;12.70;99.90;;;;;;7404418;19;20266;-81
2023/05/31 06:56:35;;;;;;;;;;;12.50;99.90;;;;;;7408657;19;19918;-81
2023/05/31 06:59:04;;;;;;;3.10;0.90;;;12.70;99.90;;;;;;7410826;19;19935;-82
2023/05/31 07:01:33;;;;;;;0.82;0.60;;;12.80;99.90;;;;;;7406252;19;19915;-81
2023/05/31 07:04:02;;;;;;;0.80;0.50;;;12.70;99.90;;;;;;7406272;19;19919;-81
2023/05/31 07:06:32;;;;;;;1.70;0.70;;;12.70;99.90;;;;;;7406047;19;19919;-81
2023/05/31 07:09:01;;;;;;;1.10;0.60;;;12.90;99.90;;;;;;7404322;19;19946;-81
2023/05/31 07:11:32;;;;;;;0.75;0.50;;;13.00;99.90;;;;;;7405875;19;19931;-81
2023/05/31 07:14:02;;;;;;;1.48;0.50;;;13.00;99.90;;;;;;7406894;19;19935;-81
2023/05/31 07:16:31;;;;;;;0.90;0.40;;;13.10;99.90;;;;;;7405142;19;19929;-81
2023/05/31 07:19:00;;;;;;;1.50;0.63;;;13.10;99.90;;;;;;7408778;19;19954;-81
2023/05/31 07:21:29;;;;;;;2.03;0.50;;;13.90;99.90;;;;;;7407344;19;19922;-82
2023/05/31 07:23:59;;;;;;;1.42;0.50;;;13.20;99.90;;;;;;7407393;19;20242;-81
2023/05/31 07:26:32;;;;;;;0.75;0.47;;;13.20;99.90;;;;;;7406558;19;19942;-81
2023/05/31 07:29:01;;;;;;;2.22;0.63;;;13.30;99.90;;;;;;7404980;19;20356;-82
2023/05/31 07:31:30;;;;;;;0.95;0.60;;;13.40;99.90;;;;;;7405175;19;19923;-81
2023/05/31 07:33:59;;;;;;;3.28;0.77;;;13.40;99.90;;;;;;7405388;19;20010;-81
2023/05/31 07:36:31;;;;;;;1.77;0.50;;;13.50;99.90;;;;;;7409839;19;19914;-81
2023/05/31 07:39:00;;;;;;;0.50;0.32;;;13.70;99.90;;;;;;7402064;19;19930;-82
2023/05/31 07:41:32;;;;;;;0.80;0.40;;;13.70;99.90;;;;;;7401486;19;19952;-81
2023/05/31 07:44:02;;;;;;;1.02;0.60;;;13.70;99.90;;;;;;7400050;19;19926;-81
2023/05/31 07:46:31;;;;;;;0.90;0.52;;;13.80;99.90;;;;;;7402195;19;19926;-81
2023/05/31 07:49:01;;;;;;;1.08;0.60;;;13.70;99.90;;;;;;7401162;19;20337;-81
2023/05/31 07:51:31;;;;;;;0.63;0.45;;;14.10;99.90;;;;;;7400496;19;20047;-82
2023/05/31 07:54:00;;;;;;;1.25;1.05;;;13.90;99.90;;;;;;7401453;19;19943;-82
2023/05/31 07:56:32;;;;;;;1.52;0.60;;;13.90;99.90;;;;;;7402325;19;19919;-81
2023/05/31 07:59:01;;;;;;;1.20;0.50;;;14.00;99.90;;;;;;7401374;19;19915;-81
2023/05/31 08:01:30;;;;;;;1.83;0.60;;;14.20;99.90;;;;;;7401508;19;19918;-82
2023/05/31 08:04:08;;;;;;;1.15;0.52;;;14.20;99.90;;;;;;7401510;19;19910;-81
2023/05/31 08:06:37;;;;;;;3.15;0.70;;;14.20;99.90;;;;;;7401388;19;19960;-80
2023/05/31 08:09:07;;;;;;;1.70;0.57;;;14.30;99.90;;;;;;7401411;19;20248;-80
2023/05/31 08:11:39;;;;;;;1.70;0.88;;;14.30;99.90;;;;;;7399885;19;19970;-81
2023/05/31 08:14:08;;;;;;;0.90;0.60;;;14.40;99.90;;;;;;7402133;19;19914;-81
2023/05/31 08:16:39;;;;;;;2.08;0.80;;;14.60;99.90;;;;;;7401019;19;19932;-81
2023/05/31 08:19:08;;;;;;;1.30;0.70;;;14.70;99.90;;;;;;7400130;19;19922;-81
2023/05/31 08:21:38;;;;;;;1.00;0.50;;;14.80;99.90;;;;;;7400711;19;19914;-81
2023/05/31 08:24:08;;;;;;;1.80;0.60;;;14.80;99.90;;;;;;7399420;19;20214;-81
2023/05/31 08:26:40;;;;;;;0.60;0.60;;;14.80;99.90;;;;;;7402029;19;19985;-80
2023/05/31 08:29:09;;;;;;;2.35;0.75;;;13.00;99.90;;;;;;7401091;19;19956;-81
2023/05/31 08:31:38;;;;;;;1.27;0.70;;;14.90;99.90;;;;;;7401544;19;19911;-81
2023/05/31 08:34:08;;;;;;;1.85;0.68;;;15.00;99.90;;;;;;7400053;19;19919;-81
2023/05/31 08:36:37;;;;;;;2.95;0.88;;;15.00;99.90;;;;;;7401730;19;20540;-81
2023/05/31 08:39:07;;;;;;;1.13;0.70;;;15.20;99.90;;;;;;7400314;19;19945;-80
2023/05/31 08:41:45;;;;;;;2.83;0.82;;;15.30;99.90;;;;;;7403223;19;19921;-80
2023/05/31 08:44:16;;;;;;;0.82;0.60;;;15.30;99.90;;;;;;7407442;19;19955;-81
2023/05/31 08:46:47;;;;;;;1.10;0.80;;;15.50;99.90;;;;;;7406394;19;20317;-81
2023/05/31 08:49:17;;;;;;;3.50;0.88;;;15.50;99.90;;;;;;7408591;19;19919;-81
2023/05/31 08:51:48;;;;;;;0.88;0.50;;;15.40;99.90;;;;;;7403864;19;19919;-81
2023/05/31 08:54:19;;;;;;;0.95;0.63;;;15.60;99.90;;;;;;7406912;19;19989;-81
2023/05/31 08:56:52;;;;;;;1.25;0.50;;;15.60;99.90;;;;;;7403973;19;20414;-80
2023/05/31 08:59:22;;;;;;;1.05;0.57;;;15.70;99.90;;;;;;7405296;19;19931;-81
2023/05/31 09:01:52;;;;;;;0.90;0.60;;;15.70;99.90;;;;;;7405552;19;21117;-80
2023/05/31 09:04:21;;;;;;;1.02;0.70;;;15.80;99.90;;;;;;7407503;19;19926;-80
2023/05/31 09:06:51;;;;;;;1.05;0.63;;;15.70;99.90;;;;;;7408020;19;19923;-81
2023/05/31 09:09:20;;;;;;;1.63;0.73;;;16.00;99.90;;;;;;7405631;19;19970;-81
2023/05/31 09:11:52;;;;;;;0.70;0.45;;;16.00;99.90;;;;;;7405227;19;19978;-81
2023/05/31 09:14:21;;;;;;;1.10;0.70;;;16.10;99.90;;;;;;7406934;19;19946;-82
2023/05/31 09:16:52;;;;;;;1.23;0.80;;;16.30;99.90;;;;;;7404949;19;19922;-82
2023/05/31 09:19:21;;;;;;;0.70;0.50;;;16.30;99.90;;;;;;7404615;19;19935;-82
2023/05/31 09:21:50;;;;;;;1.27;0.68;;;16.60;99.90;;;;;;7405930;19;19929;-81
2023/05/31 09:24:19;;;;;;;2.03;0.68;;;16.80;99.90;;;;;;7405840;19;19918;-81
2023/05/31 09:26:54;;;;;;;1.95;0.80;;;16.70;99.90;;;;;;7407921;19;19922;-81
2023/05/31 09:29:23;;;;;;;1.60;0.68;;;16.80;99.90;;;;;;7407206;19;19935;-82
2023/05/31 09:32:11;;;;;;;1.65;0.77;;;16.60;99.90;;;;;;7406454;19;20307;-81
2023/05/31 09:34:40;;;;;;;1.67;0.85;;;16.60;99.90;;;;;;7408142;19;19943;-82
2023/05/31 09:37:09;;;;;;;2.60;1.00;;;16.70;99.90;;;;;;7406284;19;19974;-81
2023/05/31 09:39:38;;;;;;;1.17;0.70;;;16.80;99.90;;;;;;7408303;19;19929;-81
2023/05/31 09:42:16;;;;;;;2.38;0.88;;;16.70;99.90;;;;;;7403729;19;19919;-81
2023/05/31 09:44:50;;;;;;;1.92;0.80;;;16.80;99.90;;;;;;7404923;19;20332;-82
2023/05/31 09:47:25;;;;;;;3.35;1.02;;;16.80;99.90;;;;;;7402719;19;19922;-81
2023/05/31 09:49:56;;;;;;;1.75;0.80;;;16.90;99.90;;;;;;7404940;19;19978;-81
2023/05/31 09:52:30;;;;;;;1.52;0.80;;;16.80;99.90;;;;;;7402696;19;19927;-81
2023/05/31 09:54:59;;;;;;;3.25;0.80;;;16.80;99.90;;;;;;7404168;19;20344;-81
2023/05/31 09:57:40;;;;;;;2.42;0.93;;;16.70;99.90;;;;;;7401636;19;20053;-79
2023/05/31 10:00:15;;;;;;;1.60;0.82;;;17.00;99.90;;;;;;7396754;19;19922;-79
2023/05/31 10:02:45;;;;;;;2.03;0.98;;;17.00;99.90;;;;;;7404324;19;19978;-79
2023/05/31 10:05:15;;;;;;;1.63;0.80;;;17.40;99.90;;;;;;7402606;19;20003;-79
2023/05/31 10:07:46;;;;;;;1.85;0.88;;;17.40;99.90;;;;;;7402244;19;20293;-79
2023/05/31 10:10:17;;;;;;;2.60;1.30;;;16.80;99.90;;;;;;7401664;19;20337;-80
2023/05/31 10:12:52;;;;;;;2.38;1.00;;;17.70;99.90;;;;;;7402000;19;20299;-79
2023/05/31 10:15:25;;;;;;;1.77;0.90;;;17.80;99.90;;;;;;7399859;19;19918;-79
2023/05/31 10:18:03;;;;;;;1.98;0.98;;;17.90;99.90;;;;;;7401160;19;20327;-79
2023/05/31 10:20:39;;;;;;;1.75;0.90;;;17.80;99.90;;;;;;7398801;19;19957;-79
2023/05/31 10:23:14;;;;;;;2.05;1.10;;;17.90;99.90;;;;;;7400964;19;19985;-79
2023/05/31 10:25:49;;;;;;;1.38;0.95;;;18.00;99.90;;;;;;7398646;19;20512;-79
2023/05/31 10:28:26;;;;;;;1.50;1.08;;;18.10;99.90;;;;;;7401622;19;19990;-79
2023/05/31 10:30:56;;;;;;;1.30;0.98;;;20.00;99.90;;;;;;7402547;19;19922;-79
2023/05/31 10:33:29;;;;;;;1.85;0.80;;;18.20;99.90;;;;;;7399879;19;19925;-79
2023/05/31 10:35:59;;;;;;;0.98;0.80;;;18.30;99.90;;;;;;7401985;19;19974;-79
2023/05/31 10:38:48;;;;;;;1.50;0.95;;;18.10;99.90;;;;;;7400897;19;19930;-78
2023/05/31 10:41:21;;;;;;;1.83;1.08;;;18.20;99.90;;;;;;7400175;19;19942;-79
2023/05/31 10:43:58;;;;;;;1.67;0.80;;;18.20;99.90;;;;;;7401359;19;19952;-80
2023/05/31 10:46:29;;;;;;;1.35;0.95;;;18.30;99.90;;;;;;7399458;19;19927;-79
2023/05/31 10:49:00;;;;;;;1.75;1.20;;;18.50;99.90;;;;;;7403823;19;20317;-79
2023/05/31 10:51:41;;;;;;;2.33;0.90;;;18.60;99.90;;;;;;7400805;19;19911;-79
2023/05/31 10:54:11;;;;;;;1.83;0.90;;;18.70;99.90;;;;;;7400216;19;19986;-79
2023/05/31 10:56:40;;;;;;;1.75;1.08;;;18.70;99.90;;;;;;7400091;19;19928;-79
2023/05/31 10:59:20;;;;;;;1.25;1.00;;;18.80;99.90;;;;;;7399874;19;19970;-80
2023/05/31 11:01:49;;;;;;;1.90;1.10;;;18.80;99.90;;;;;;7402254;19;19930;-79
2023/05/31 11:04:24;;;;;;;2.30;1.10;;;18.90;99.90;;;;;;7399667;19;19926;-79
2023/05/31 11:06:56;;;;;;;1.52;0.90;;;19.20;99.90;;;;;;7398823;19;19953;-79
2023/05/31 11:09:25;;;;;;;1.25;1.02;;;19.20;99.90;;;;;;7400969;19;19918;-79
2023/05/31 11:11:54;;;;;;;1.10;0.90;;;19.20;99.90;;;;;;7398290;19;19931;-80
2023/05/31 11:14:31;;;;;;;1.15;0.82;;;19.40;99.90;;;;;;7399622;19;20097;-80
2023/05/31 11:17:15;;;;;;;1.27;0.90;;;19.50;99.90;;;;;;7398837;19;20234;-81
2023/05/31 11:19:46;;;;;;;1.65;1.00;;;19.50;99.90;;;;;;7401126;19;20486;-80
2023/05/31 11:22:17;;;;;;;1.25;0.80;;;19.80;99.90;;;;;;7398990;19;20363;-81
2023/05/31 11:24:53;;;;;;;;;;;19.80;99.90;;;;;;7401754;19;19932;-81
2023/05/31 11:27:23;;;;;;;2.17;0.90;;;20.00;99.90;;;;;;7403225;19;20372;-81
2023/05/31 11:30:03;;;;;;;2.17;1.30;;;20.20;99.90;;;;;;7393708;19;19919;-81
2023/05/31 11:32:58;;;;;;;1.65;0.90;;;20.20;99.90;;;;;;7398673;19;19926;-79
2023/05/31 11:35:28;;;;;;;1.73;0.70;;;20.40;99.90;;;;;;7402673;19;19928;-81
2023/05/31 11:38:08;;;;;;;0.68;0.47;;;20.20;99.90;;;;;;7400459;19;19923;-80
2023/05/31 11:40:38;;;;;;;1.00;0.60;;;20.30;99.90;;;;;;7402634;19;19939;-80
2023/05/31 11:43:11;;;;;;;1.83;0.65;;;20.30;99.90;;;;;;7399881;19;20297;-80
2023/05/31 11:45:49;;;;;;;0.60;0.50;;;20.40;99.90;;;;;;7399626;19;19933;-80
2023/05/31 11:48:30;;;;;;;1.42;0.80;;;20.50;99.90;;;;;;7400861;19;19990;-81
2023/05/31 11:51:00;;;;;;;1.33;0.80;;;20.60;99.90;;;;;;7399339;19;20369;-79
2023/05/31 11:53:30;;;;;;;2.00;0.70;;;20.70;99.90;;;;;;7398953;19;19925;-80
2023/05/31 11:56:00;;;;;;;1.20;0.63;;;20.70;99.90;;;;;;7397876;19;19922;-81
2023/05/31 11:58:30;;;;;;;0.73;0.60;;;20.90;99.90;;;;;;7400354;19;19994;-81
2023/05/31 12:01:05;;;;;;;1.95;0.50;;;21.00;99.90;;;;;;7399921;19;20321;-79
2023/05/31 12:03:34;;;;;;;1.17;0.50;;;21.30;99.90;;;;;;7399359;19;19926;-81
2023/05/31 12:06:04;;;;;;;1.50;0.70;;;21.30;99.90;;;;;;7396223;19;20634;-81
2023/05/31 12:08:34;;;;;;;0.75;0.70;;;21.50;99.90;;;;;;7401088;19;19915;-81
2023/05/31 12:11:07;;;;;;;1.50;0.60;;;21.70;99.90;;;;;;7394416;19;19947;-80
2023/05/31 12:13:36;;;;;;;2.05;0.85;;;21.70;99.90;;;;;;7399073;19;19943;-80
2023/05/31 12:16:11;;;;;;;1.08;0.60;;;21.70;99.90;;;;;;7398682;19;20063;-81
2023/05/31 12:18:40;;;;;;;1.02;0.80;;;21.70;99.90;;;;;;7408101;19;19923;-81
2023/05/31 12:21:11;;;;;;;1.65;0.65;;;21.70;99.90;;;;;;7406289;19;19971;-81
2023/05/31 12:23:55;;;;;;;1.05;0.50;;;21.70;99.90;;;;;;7405364;19;19940;-81
2023/05/31 12:26:26;;;;;;;1.55;0.50;;;21.80;99.90;;;;;;7406050;19;19970;-81
2023/05/31 12:28:55;;;;;;;2.75;1.05;;;21.90;99.90;;;;;;7407173;19;19939;-81
2023/05/31 12:31:31;;;;;;;1.48;0.73;;;22.10;99.90;;;;;;7406594;19;19919;-81
2023/05/31 12:34:02;;;;;;;1.27;0.65;;;22.00;99.90;;;;;;7405593;19;19915;-81
2023/05/31 12:36:32;;;;;;;2.05;1.00;;;22.10;99.90;;;;;;7406471;19;19925;-81
2023/05/31 12:39:01;;;;;;;1.67;0.90;;;22.20;99.90;;;;;;7408138;19;20042;-81
2023/05/31 12:41:31;;;;;;;1.48;0.70;;;22.00;99.90;;;;;;7408046;19;20267;-81
2023/05/31 12:44:01;;;;;;;0.80;0.70;;;22.40;99.90;;;;;;7405302;19;19914;-80
2023/05/31 12:46:40;;;;;;;1.15;0.70;;;22.40;99.90;;;;;;7406411;19;20411;-81
2023/05/31 12:49:21;;;;;;;1.45;0.70;;;22.40;99.90;;;;;;7405793;19;19914;-81
2023/05/31 12:51:50;;;;;;;1.77;0.70;;;22.40;99.90;;;;;;7404651;19;20332;-80
2023/05/31 12:54:20;;;;;;;1.10;0.70;;;22.50;99.90;;;;;;7403717;19;19928;-80
2023/05/31 12:56:49;;;;;;;0.90;0.47;;;22.70;99.90;;;;;;7406044;19;20444;-81
2023/05/31 12:59:19;;;;;;;2.47;0.60;;;22.80;99.90;;;;;;7400955;19;20392;-81
2023/05/31 13:01:50;;;;;;;1.52;0.75;;;23.00;99.90;;;;;;7405820;19;19926;-81
2023/05/31 13:04:20;;;;;;;0.90;0.55;;;23.00;99.90;;;;;;7405982;19;19923;-81
2023/05/31 13:06:49;;;;;;;1.23;0.63;;;23.10;99.90;;;;;;7406373;19;19926;-80
2023/05/31 13:09:19;;;;;;;1.20;0.60;;;23.20;99.90;;;;;;7405785;19;19915;-81